| time (UTC) | temp F | wind direction | speed MPH | gust MPH | rain 1hr in | rain 24hr in | rain mn in | humidity % | barometer mb |
| 20260902143051 | 60 | 0 | 0.0 | 0.0 | 0.00 | 0.00 | 0.00 | 62 | 1007.3 |
| 20260902141601 | 59 | 0 | 0.0 | 1.0 | 0.00 | 0.00 | 0.00 | 63 | 1007.5 |
| 20260902140059 | 58 | 0 | 1.0 | 2.0 | 0.00 | 0.00 | 0.00 | 64 | 1007.5 |
| 20260902134553 | 57 | 0 | 0.0 | 0.0 | 0.00 | 0.00 | 0.00 | 65 | 1007.2 |
| 20260902133058 | 58 | 0 | 0.0 | 0.0 | 0.00 | 0.00 | 0.00 | 64 | 1007.2 |
| 20260902131601 | 59 | 0 | 0.0 | 0.0 | 0.00 | 0.00 | 0.00 | 64 | 1007.4 |
| 20260902124553 | 55 | 0 | 0.0 | 0.0 | 0.00 | 0.00 | 0.00 | 68 | 1007.1 |
| 20260902123103 | 55 | 0 | 0.0 | 4.0 | 0.00 | 0.00 | 0.00 | 67 | 1007.2 |
| 20260902121611 | 55 | 0 | 0.0 | 0.0 | 0.00 | 0.00 | 0.00 | 66 | 1007.1 |
| 20260902120056 | 56 | 0 | 0.0 | 3.0 | 0.00 | 0.00 | 0.00 | 65 | 1006.7 |
| 20260902114554 | 57 | 190 | 1.0 | 7.0 | 0.00 | 0.00 | 0.00 | 62 | 1006.8 |
| 20260902113053 | 57 | 190 | 1.0 | 3.0 | 0.00 | 0.00 | 0.00 | 59 | 1006.9 |
| 20260902111602 | 58 | 190 | 0.0 | 2.0 | 0.00 | 0.00 | 0.00 | 57 | 1007.2 |
| 20260902110057 | 58 | 190 | 1.0 | 4.0 | 0.00 | 0.00 | 0.00 | 57 | 1007.3 |
| 20260902104555 | 58 | 0 | 0.0 | 0.0 | 0.00 | 0.00 | 0.00 | 56 | 1007.5 |
| 20260902103048 | 58 | 0 | 0.0 | 1.0 | 0.00 | 0.00 | 0.00 | 57 | 1007.4 |
| 20260902101602 | 58 | 0 | 0.0 | 1.0 | 0.00 | 0.00 | 0.00 | 58 | 1007.2 |
| 20260902100107 | 57 | 224 | 2.0 | 6.0 | 0.00 | 0.00 | 0.00 | 59 | 1007.4 |
| 20260902094551 | 56 | 190 | 1.0 | 4.0 | 0.00 | 0.00 | 0.00 | 60 | 1007.4 |
| 20260902093047 | 55 | 0 | 2.0 | 4.0 | 0.00 | 0.00 | 0.00 | 59 | 1007.3 |
| 20260902091554 | 54 | 190 | 1.0 | 3.0 | 0.00 | 0.00 | 0.00 | 60 | 1007.6 |
| 20260902090053 | 55 | 44 | 0.0 | 2.0 | 0.00 | 0.00 | 0.00 | 59 | 1007.3 |
| 20260902084559 | 58 | 0 | 0.0 | 2.0 | 0.00 | 0.00 | 0.00 | 52 | 1007.5 |
| 20260902083057 | 62 | 0 | 0.0 | 2.0 | 0.00 | 0.00 | 0.00 | 47 | 1007.5 |
| 20260902081602 | 63 | 0 | 0.0 | 2.0 | 0.00 | 0.00 | 0.00 | 47 | 1007.4 |
| 20260902080049 | 62 | 190 | 1.0 | 4.0 | 0.00 | 0.00 | 0.00 | 47 | 1007.5 |
| 20260902074600 | 61 | 190 | 1.0 | 3.0 | 0.00 | 0.00 | 0.00 | 49 | 1007.6 |
| 20260902073052 | 61 | 0 | 0.0 | 5.0 | 0.00 | 0.00 | 0.00 | 50 | 1007.5 |
| 20260902071552 | 59 | 190 | 2.0 | 3.0 | 0.00 | 0.00 | 0.00 | 52 | 1007.3 |
| 20260902070056 | 59 | 44 | 1.0 | 4.0 | 0.00 | 0.00 | 0.00 | 51 | 1007.2 |
| 20260902064557 | 60 | 190 | 0.0 | 3.0 | 0.00 | 0.00 | 0.00 | 49 | 1007.3 |
| 20260902063054 | 61 | 190 | 0.0 | 5.0 | 0.00 | 0.00 | 0.00 | 48 | 1007.3 |
| 20260902061604 | 59 | 190 | 2.0 | 4.0 | 0.00 | 0.00 | 0.00 | 51 | 1007.5 |
| 20260902054602 | 60 | 0 | 0.0 | 3.0 | 0.00 | 0.00 | 0.00 | 49 | 1007.6 |
| 20260902053048 | 60 | 44 | 1.0 | 4.0 | 0.00 | 0.00 | 0.00 | 50 | 1007.7 |
| 20260902051556 | 60 | 0 | 0.0 | 2.0 | 0.00 | 0.00 | 0.00 | 49 | 1007.9 |
| 20260902050104 | 61 | 0 | 0.0 | 1.0 | 0.00 | 0.00 | 0.00 | 48 | 1007.8 |
| 20260902044552 | 62 | 190 | 2.0 | 5.0 | 0.00 | 0.00 | 0.00 | 46 | 1007.9 |
| 20260902043051 | 63 | 44 | 1.0 | 4.0 | 0.00 | 0.00 | 0.00 | 45 | 1008.0 |
| 20260902041554 | 63 | 44 | 2.0 | 4.0 | 0.00 | 0.00 | 0.00 | 44 | 1008.0 |
| 20260902040053 | 64 | 0 | 0.0 | 3.0 | 0.00 | 0.00 | 0.00 | 43 | 1008.0 |
| 20260902034604 | 63 | 190 | 0.0 | 5.0 | 0.00 | 0.00 | 0.00 | 44 | 1008.0 |
| 20260902033100 | 63 | 44 | 0.0 | 2.0 | 0.00 | 0.00 | 0.00 | 43 | 1008.1 |
| 20260902031555 | 63 | 190 | 1.0 | 4.0 | 0.00 | 0.00 | 0.00 | 42 | 1008.1 |
| 20260902030051 | 64 | 44 | 0.0 | 3.0 | 0.00 | 0.00 | 0.00 | 41 | 1007.9 |
| 20260902024550 | 65 | 190 | 0.0 | 3.0 | 0.00 | 0.00 | 0.00 | 38 | 1007.9 |
| 20260902023058 | 67 | 44 | 2.0 | 3.0 | 0.00 | 0.00 | 0.00 | 34 | 1007.9 |
| 20260902021551 | 69 | 190 | 1.0 | 3.0 | 0.00 | 0.00 | 0.00 | 32 | 1007.7 |
| 20260902020056 | 71 | 116 | 1.0 | 3.0 | 0.00 | 0.00 | 0.00 | 30 | 1007.7 |
| 20260902014549 | 75 | 44 | 0.0 | 3.0 | 0.00 | 0.00 | 0.00 | 27 | 1007.6 |
| 20260902013056 | 78 | 190 | 3.0 | 5.0 | 0.00 | 0.00 | 0.00 | 25 | 1007.7 |
| 20260902011554 | 80 | 190 | 5.0 | 7.0 | 0.00 | 0.00 | 0.00 | 24 | 1007.8 |
| 20260902004549 | 82 | 190 | 2.0 | 3.0 | 0.00 | 0.00 | 0.00 | 23 | 1007.9 |
| 20260902003100 | 82 | 190 | 2.0 | 4.0 | 0.00 | 0.00 | 0.00 | 22 | 1007.9 |
| 20260902001558 | 82 | 190 | 1.0 | 6.0 | 0.00 | 0.00 | 0.00 | 23 | 1007.9 |
| 20260902000052 | 82 | 44 | 3.0 | 7.0 | 0.00 | 0.00 | 0.00 | 22 | 1008.1 |
| 20260901234548 | 82 | 0 | 1.0 | 5.0 | 0.00 | 0.00 | 0.00 | 22 | 1008.1 |
| 20260901233058 | 82 | 190 | 0.0 | 5.0 | 0.00 | 0.00 | 0.00 | 23 | 1008.2 |
| 20260901231555 | 83 | 190 | 1.0 | 4.0 | 0.00 | 0.00 | 0.00 | 21 | 1008.3 |
| 20260901230051 | 83 | 190 | 1.0 | 11.0 | 0.00 | 0.00 | 0.00 | 22 | 1008.6 |
| 20260901224554 | 83 | 190 | 2.0 | 8.0 | 0.00 | 0.00 | 0.00 | 22 | 1008.5 |
| 20260901223056 | 83 | 190 | 4.0 | 10.0 | 0.00 | 0.00 | 0.00 | 23 | 1008.7 |
| 20260901221559 | 83 | 190 | 4.0 | 13.0 | 0.00 | 0.00 | 0.00 | 23 | 1008.8 |
| 20260901220052 | 83 | 190 | 5.0 | 11.0 | 0.00 | 0.00 | 0.00 | 26 | 1009.0 |
| 20260901214557 | 82 | 0 | 1.0 | 6.0 | 0.00 | 0.00 | 0.00 | 25 | 1009.2 |
| 20260901213102 | 82 | 0 | 1.0 | 8.0 | 0.00 | 0.00 | 0.00 | 25 | 1009.3 |
| 20260901211550 | 84 | 190 | 3.0 | 11.0 | 0.00 | 0.00 | 0.00 | 26 | 1009.5 |
| 20260901210109 | 84 | 190 | 1.0 | 7.0 | 0.00 | 0.00 | 0.00 | 23 | 1009.6 |
| 20260901204555 | 82 | 190 | 1.0 | 7.0 | 0.00 | 0.00 | 0.00 | 26 | 1009.9 |
| 20260901203052 | 83 | 190 | 2.0 | 8.0 | 0.00 | 0.00 | 0.00 | 24 | 1010.0 |
| 20260901201548 | 83 | 190 | 3.0 | 8.0 | 0.00 | 0.00 | 0.00 | 25 | 1010.2 |
| 20260901200048 | 82 | 190 | 4.0 | 8.0 | 0.00 | 0.00 | 0.00 | 25 | 1010.5 |
| 20260901194558 | 80 | 190 | 7.0 | 13.0 | 0.00 | 0.00 | 0.00 | 25 | 1010.7 |
| 20260901193054 | 79 | 190 | 5.0 | 14.0 | 0.00 | 0.00 | 0.00 | 28 | 1010.8 |
| 20260901191553 | 77 | 190 | 2.0 | 14.0 | 0.00 | 0.00 | 0.00 | 30 | 1011.0 |
| 20260901190053 | 78 | 190 | 5.0 | 15.0 | 0.00 | 0.00 | 0.00 | 28 | 1011.1 |
| 20260901184605 | 77 | 190 | 3.0 | 11.0 | 0.00 | 0.00 | 0.00 | 32 | 1011.2 |
| 20260901183104 | 77 | 190 | 7.0 | 13.0 | 0.00 | 0.00 | 0.00 | 30 | 1011.5 |
| 20260901181551 | 76 | 190 | 1.0 | 11.0 | 0.00 | 0.00 | 0.00 | 33 | 1011.7 |
| 20260901180051 | 74 | 190 | 8.0 | 12.0 | 0.00 | 0.00 | 0.00 | 33 | 1012.0 |
| 20260901174556 | 73 | 190 | 5.0 | 13.0 | 0.00 | 0.00 | 0.00 | 36 | 1012.1 |
| 20260901173058 | 72 | 190 | 6.0 | 14.0 | 0.00 | 0.00 | 0.00 | 38 | 1012.1 |
| 20260901171559 | 71 | 44 | 2.0 | 14.0 | 0.00 | 0.00 | 0.00 | 40 | 1012.3 |
| 20260901170051 | 70 | 190 | 10.0 | 15.0 | 0.00 | 0.00 | 0.00 | 38 | 1012.4 |
| 20260901164559 | 70 | 224 | 4.0 | 16.0 | 0.00 | 0.00 | 0.00 | 41 | 1012.5 |
| 20260901163059 | 69 | 190 | 11.0 | 16.0 | 0.00 | 0.00 | 0.00 | 40 | 1012.7 |
| 20260901161559 | 68 | 190 | 9.0 | 16.0 | 0.00 | 0.00 | 0.00 | 40 | 1012.6 |
| 20260901160054 | 67 | 190 | 7.0 | 12.0 | 0.00 | 0.00 | 0.00 | 44 | 1012.7 |
| 20260901154612 | 65 | 190 | 7.0 | 12.0 | 0.00 | 0.00 | 0.00 | 45 | 1012.9 |
| 20260901153107 | 64 | 190 | 6.0 | 11.0 | 0.00 | 0.00 | 0.00 | 47 | 1012.9 |
| 20260901151555 | 63 | 190 | 4.0 | 8.0 | 0.00 | 0.00 | 0.00 | 50 | 1013.1 |
| 20260901144548 | 61 | 44 | 3.0 | 5.0 | 0.00 | 0.00 | 0.00 | 53 | 1013.3 |